KMIE/MIE METAR and TAF weather

Enter ICAO airport designator
Station Type Date Time Source
KMIE METAR 2020/10/29 15:53 UTC NOAA

KMIE 291553Z 04014G21KT 10SM OVC009 08/04 A2974 RMK AO2 RAE48 CIG 007V014 SLP068 P0001 T00780044


Station Type Date Time Source
KMIE Decoded METAR 2020/10/29 15:53 UTC NOAA

MUNCIE DELAWARE JOHNSON, IN, United States (KMIE) 40-14N 85-24W 285M
Oct 29, 2020 - 11:53 AM EDT / 2020.10.29 1553 UTC
Wind: from the NE (040 degrees) at 16 MPH (14 KT) gusting to 24 MPH (21 KT):0
Visibility: 10 mile(s):0
Sky conditions: overcast
Precipitation last hour: 0.01 inches
Temperature: 46.0 F (7.8 C)
Dew Point: 39.9 F (4.4 C)
Relative Humidity: 79%
Pressure (altimeter): 29.74 in. Hg (1007 hPa)
ob: KMIE 291553Z 04014G21KT 10SM OVC009 08/04 A2974 RMK AO2 RAE48 CIG 007V014 SLP068 P0001 T00780044
cycle: 16

Station Type Date Time Source
KMIE TAF UTC NOAA

Error!

Example: see airport list